sensor_id;sensor_type;location;lat;lon;timestamp;pressure;altitude;pressure_sealevel;temperature;humidity
24762;BME280;12865;51.934;10.330;2023-03-04T00:01:57;99741.53;;;2.48;100.00
24762;BME280;12865;51.934;10.330;2023-03-04T00:04:42;99741.41;;;2.51;100.00
24762;BME280;12865;51.934;10.330;2023-03-04T00:07:28;99731.34;;;2.59;100.00
24762;BME280;12865;51.934;10.330;2023-03-04T00:10:14;99739.00;;;2.64;100.00
24762;BME280;12865;51.934;10.330;2023-03-04T00:13:00;99720.91;;;2.58;100.00
24762;BME280;12865;51.934;10.330;2023-03-04T00:15:45;99734.72;;;2.61;100.00
24762;BME280;12865;51.934;10.330;2023-03-04T00:18:31;99741.94;;;2.58;100.00
24762;BME280;12865;51.934;10.330;2023-03-04T00:21:17;99726.75;;;2.46;100.00
24762;BME280;12865;51.934;10.330;2023-03-04T00:24:02;99736.81;;;2.55;100.00
24762;BME280;12865;51.934;10.330;2023-03-04T00:26:48;99735.44;;;2.48;100.00
24762;BME280;12865;51.934;10.330;2023-03-04T00:29:33;99734.44;;;2.50;100.00
24762;BME280;12865;51.934;10.330;2023-03-04T00:32:19;99736.16;;;2.51;100.00
24762;BME280;12865;51.934;10.330;2023-03-04T00:35:06;99735.13;;;2.54;100.00
24762;BME280;12865;51.934;10.330;2023-03-04T00:37:51;99735.22;;;2.52;100.00
24762;BME280;12865;51.934;10.330;2023-03-04T00:40:37;99743.56;;;2.43;100.00
24762;BME280;12865;51.934;10.330;2023-03-04T00:43:23;99733.66;;;2.48;100.00
24762;BME280;12865;51.934;10.330;2023-03-04T00:46:08;99736.03;;;2.53;100.00
24762;BME280;12865;51.934;10.330;2023-03-04T00:48:54;99737.69;;;2.55;100.00
24762;BME280;12865;51.934;10.330;2023-03-04T00:51:40;99740.06;;;2.60;100.00
24762;BME280;12865;51.934;10.330;2023-03-04T00:56:53;99738.38;;;2.76;100.00
24762;BME280;12865;51.934;10.330;2023-03-04T00:59:38;99736.34;;;2.81;100.00
24762;BME280;12865;51.934;10.330;2023-03-04T01:02:25;99732.66;;;2.85;100.00
24762;BME280;12865;51.934;10.330;2023-03-04T01:05:11;99721.41;;;2.82;100.00
24762;BME280;12865;51.934;10.330;2023-03-04T01:07:56;99724.69;;;2.87;100.00
24762;BME280;12865;51.934;10.330;2023-03-04T01:10:42;99730.47;;;2.76;100.00
24762;BME280;12865;51.934;10.330;2023-03-04T01:13:28;99721.50;;;2.80;100.00
24762;BME280;12865;51.934;10.330;2023-03-04T01:16:13;99727.69;;;2.79;100.00
24762;BME280;12865;51.934;10.330;2023-03-04T01:18:59;99721.09;;;2.88;100.00
24762;BME280;12865;51.934;10.330;2023-03-04T01:21:45;99727.53;;;2.99;100.00
24762;BME280;12865;51.934;10.330;2023-03-04T01:24:30;99723.31;;;2.95;100.00
24762;BME280;12865;51.934;10.330;2023-03-04T01:27:16;99715.16;;;2.84;100.00
24762;BME280;12865;51.934;10.330;2023-03-04T01:30:03;99710.16;;;2.95;100.00
24762;BME280;12865;51.934;10.330;2023-03-04T01:32:48;99702.75;;;2.86;100.00
24762;BME280;12865;51.934;10.330;2023-03-04T01:35:34;99704.03;;;2.95;100.00
24762;BME280;12865;51.934;10.330;2023-03-04T01:38:20;99696.84;;;2.98;100.00
24762;BME280;12865;51.934;10.330;2023-03-04T01:41:05;99695.78;;;2.85;100.00
24762;BME280;12865;51.934;10.330;2023-03-04T01:43:54;99691.59;;;2.81;100.00
24762;BME280;12865;51.934;10.330;2023-03-04T01:46:48;99691.72;;;2.95;100.00
24762;BME280;12865;51.934;10.330;2023-03-04T01:49:34;99688.53;;;3.06;100.00
24762;BME280;12865;51.934;10.330;2023-03-04T01:52:20;99685.38;;;2.99;100.00
24762;BME280;12865;51.934;10.330;2023-03-04T01:55:14;99673.75;;;3.03;100.00
24762;BME280;12865;51.934;10.330;2023-03-04T01:58:00;99671.91;;;2.88;100.00
24762;BME280;12865;51.934;10.330;2023-03-04T02:00:46;99674.41;;;2.91;100.00
24762;BME280;12865;51.934;10.330;2023-03-04T02:03:32;99666.50;;;2.91;100.00
24762;BME280;12865;51.934;10.330;2023-03-04T02:06:17;99661.69;;;2.99;100.00
24762;BME280;12865;51.934;10.330;2023-03-04T02:09:03;99654.78;;;2.97;100.00
24762;BME280;12865;51.934;10.330;2023-03-04T02:11:50;99654.97;;;2.94;100.00
24762;BME280;12865;51.934;10.330;2023-03-04T02:14:37;99658.19;;;2.99;100.00
24762;BME280;12865;51.934;10.330;2023-03-04T02:17:24;99646.28;;;2.92;100.00
24762;BME280;12865;51.934;10.330;2023-03-04T02:26:44;99634.41;;;3.00;100.00
24762;BME280;12865;51.934;10.330;2023-03-04T02:29:31;99631.34;;;2.92;100.00
24762;BME280;12865;51.934;10.330;2023-03-04T02:32:17;99631.94;;;2.97;100.00
24762;BME280;12865;51.934;10.330;2023-03-04T02:35:03;99624.97;;;2.96;100.00
24762;BME280;12865;51.934;10.330;2023-03-04T02:37:48;99629.63;;;2.91;100.00
24762;BME280;12865;51.934;10.330;2023-03-04T02:40:34;99631.16;;;2.95;100.00
24762;BME280;12865;51.934;10.330;2023-03-04T02:43:20;99621.47;;;2.96;100.00
24762;BME280;12865;51.934;10.330;2023-03-04T02:46:07;99621.25;;;3.00;100.00
24762;BME280;12865;51.934;10.330;2023-03-04T02:48:54;99616.06;;;2.99;100.00
24762;BME280;12865;51.934;10.330;2023-03-04T02:51:40;99601.66;;;3.22;100.00
24762;BME280;12865;51.934;10.330;2023-03-04T02:54:26;99602.66;;;3.19;100.00
24762;BME280;12865;51.934;10.330;2023-03-04T02:57:12;99598.22;;;3.20;100.00
24762;BME280;12865;51.934;10.330;2023-03-04T02:59:59;99589.13;;;3.09;100.00
24762;BME280;12865;51.934;10.330;2023-03-04T03:02:44;99597.03;;;3.09;100.00
24762;BME280;12865;51.934;10.330;2023-03-04T03:05:32;99599.66;;;3.09;100.00
24762;BME280;12865;51.934;10.330;2023-03-04T03:08:18;99595.16;;;3.11;100.00
24762;BME280;12865;51.934;10.330;2023-03-04T03:11:03;99597.53;;;3.16;100.00
24762;BME280;12865;51.934;10.330;2023-03-04T03:13:49;99598.47;;;3.31;100.00
24762;BME280;12865;51.934;10.330;2023-03-04T03:16:35;99593.31;;;3.29;100.00
24762;BME280;12865;51.934;10.330;2023-03-04T03:19:20;99593.91;;;3.34;100.00
24762;BME280;12865;51.934;10.330;2023-03-04T03:22:06;99590.25;;;3.21;100.00
24762;BME280;12865;51.934;10.330;2023-03-04T03:24:52;99593.22;;;3.31;100.00
24762;BME280;12865;51.934;10.330;2023-03-04T03:27:37;99590.06;;;3.40;100.00
24762;BME280;12865;51.934;10.330;2023-03-04T03:30:23;99593.47;;;3.42;100.00
24762;BME280;12865;51.934;10.330;2023-03-04T03:33:08;99593.81;;;3.36;100.00
24762;BME280;12865;51.934;10.330;2023-03-04T03:35:54;99591.84;;;3.39;100.00
24762;BME280;12865;51.934;10.330;2023-03-04T03:38:40;99597.38;;;3.35;100.00
24762;BME280;12865;51.934;10.330;2023-03-04T03:41:26;99589.41;;;3.36;100.00
24762;BME280;12865;51.934;10.330;2023-03-04T03:44:11;99598.75;;;3.42;100.00
24762;BME280;12865;51.934;10.330;2023-03-04T03:46:57;99584.22;;;3.35;100.00
24762;BME280;12865;51.934;10.330;2023-03-04T03:49:43;99592.28;;;3.32;100.00
24762;BME280;12865;51.934;10.330;2023-03-04T03:52:28;99586.31;;;3.44;100.00
24762;BME280;12865;51.934;10.330;2023-03-04T03:55:14;99569.34;;;3.34;100.00
24762;BME280;12865;51.934;10.330;2023-03-04T03:58:00;99581.50;;;3.36;100.00
24762;BME280;12865;51.934;10.330;2023-03-04T04:00:45;99581.03;;;3.44;100.00
24762;BME280;12865;51.934;10.330;2023-03-04T04:03:31;99578.53;;;3.42;100.00
24762;BME280;12865;51.934;10.330;2023-03-04T04:06:17;99584.88;;;3.38;100.00
24762;BME280;12865;51.934;10.330;2023-03-04T04:09:02;99575.78;;;3.44;100.00
24762;BME280;12865;51.934;10.330;2023-03-04T04:11:48;99570.69;;;3.57;100.00
24762;BME280;12865;51.934;10.330;2023-03-04T04:14:34;99573.91;;;3.46;100.00
24762;BME280;12865;51.934;10.330;2023-03-04T04:17:19;99576.47;;;3.47;100.00
24762;BME280;12865;51.934;10.330;2023-03-04T04:20:06;99569.63;;;3.59;100.00
24762;BME280;12865;51.934;10.330;2023-03-04T04:22:52;99577.75;;;3.56;100.00
24762;BME280;12865;51.934;10.330;2023-03-04T04:25:38;99565.22;;;3.44;100.00
24762;BME280;12865;51.934;10.330;2023-03-04T04:28:24;99577.75;;;3.40;100.00
24762;BME280;12865;51.934;10.330;2023-03-04T04:31:09;99571.78;;;3.52;100.00
24762;BME280;12865;51.934;10.330;2023-03-04T04:33:55;99576.13;;;3.53;100.00
24762;BME280;12865;51.934;10.330;2023-03-04T04:36:41;99579.53;;;3.55;100.00
24762;BME280;12865;51.934;10.330;2023-03-04T04:39:26;99569.69;;;3.43;100.00
24762;BME280;12865;51.934;10.330;2023-03-04T04:42:12;99561.66;;;3.45;100.00
24762;BME280;12865;51.934;10.330;2023-03-04T04:44:58;99570.19;;;3.50;100.00
24762;BME280;12865;51.934;10.330;2023-03-04T04:47:43;99565.22;;;3.44;100.00
24762;BME280;12865;51.934;10.330;2023-03-04T04:50:29;99560.31;;;3.38;100.00
24762;BME280;12865;51.934;10.330;2023-03-04T04:53:15;99569.34;;;3.49;100.00
24762;BME280;12865;51.934;10.330;2023-03-04T04:56:07;99566.84;;;3.46;100.00
24762;BME280;12865;51.934;10.330;2023-03-04T04:58:56;99565.06;;;3.47;100.00
24762;BME280;12865;51.934;10.330;2023-03-04T05:01:42;99555.72;;;3.57;100.00
24762;BME280;12865;51.934;10.330;2023-03-04T05:04:27;99553.41;;;3.51;100.00
24762;BME280;12865;51.934;10.330;2023-03-04T05:07:13;99553.31;;;3.52;100.00
24762;BME280;12865;51.934;10.330;2023-03-04T05:09:59;99543.06;;;3.48;100.00
24762;BME280;12865;51.934;10.330;2023-03-04T05:12:44;99537.38;;;3.40;100.00
24762;BME280;12865;51.934;10.330;2023-03-04T05:15:30;99542.38;;;3.44;100.00
24762;BME280;12865;51.934;10.330;2023-03-04T05:18:15;99540.00;;;3.40;100.00
24762;BME280;12865;51.934;10.330;2023-03-04T05:21:02;99542.38;;;3.44;100.00
24762;BME280;12865;51.934;10.330;2023-03-04T05:23:48;99538.72;;;3.47;100.00
24762;BME280;12865;51.934;10.330;2023-03-04T05:26:34;99536.66;;;3.52;100.00
24762;BME280;12865;51.934;10.330;2023-03-04T05:29:20;99532.31;;;3.51;100.00
24762;BME280;12865;51.934;10.330;2023-03-04T05:32:05;99528.69;;;3.38;100.00
24762;BME280;12865;51.934;10.330;2023-03-04T05:34:51;99531.31;;;3.38;100.00
24762;BME280;12865;51.934;10.330;2023-03-04T05:37:37;99526.47;;;3.46;100.00
24762;BME280;12865;51.934;10.330;2023-03-04T05:40:22;99521.91;;;3.34;100.00
24762;BME280;12865;51.934;10.330;2023-03-04T05:43:10;99537.72;;;3.34;100.00
24762;BME280;12865;51.934;10.330;2023-03-04T05:45:56;99535.44;;;3.28;100.00
24762;BME280;12865;51.934;10.330;2023-03-04T05:48:43;99541.44;;;3.30;100.00
24762;BME280;12865;51.934;10.330;2023-03-04T05:51:29;99539.16;;;3.24;100.00
24762;BME280;12865;51.934;10.330;2023-03-04T05:54:14;99542.50;;;3.27;100.00
24762;BME280;12865;51.934;10.330;2023-03-04T05:57:00;99539.16;;;3.24;100.00
24762;BME280;12865;51.934;10.330;2023-03-04T05:59:46;99546.91;;;3.27;100.00
24762;BME280;12865;51.934;10.330;2023-03-04T06:02:32;99537.22;;;3.27;100.00
24762;BME280;12865;51.934;10.330;2023-03-04T06:05:18;99541.97;;;3.21;100.00
24762;BME280;12865;51.934;10.330;2023-03-04T06:08:04;99544.13;;;3.14;100.00
24762;BME280;12865;51.934;10.330;2023-03-04T06:10:52;99549.28;;;3.31;100.00
24762;BME280;12865;51.934;10.330;2023-03-04T06:13:38;99544.78;;;3.33;100.00
24762;BME280;12865;51.934;10.330;2023-03-04T06:16:24;99544.53;;;3.22;100.00
24762;BME280;12865;51.934;10.330;2023-03-04T06:19:10;99546.31;;;3.22;100.00
24762;BME280;12865;51.934;10.330;2023-03-04T06:21:55;99570.34;;;3.15;100.00
24762;BME280;12865;51.934;10.330;2023-03-04T06:24:41;99553.78;;;3.13;100.00
24762;BME280;12865;51.934;10.330;2023-03-04T06:27:27;99566.03;;;3.14;100.00
24762;BME280;12865;51.934;10.330;2023-03-04T06:30:13;99547.75;;;3.11;100.00
24762;BME280;12865;51.934;10.330;2023-03-04T06:32:59;99551.59;;;3.06;100.00
24762;BME280;12865;51.934;10.330;2023-03-04T06:35:44;99551.16;;;3.13;100.00
24762;BME280;12865;51.934;10.330;2023-03-04T06:38:30;99549.53;;;3.11;100.00
24762;BME280;12865;51.934;10.330;2023-03-04T06:41:15;99547.69;;;3.13;100.00
24762;BME280;12865;51.934;10.330;2023-03-04T06:44:02;99553.53;;;3.18;100.00
24762;BME280;12865;51.934;10.330;2023-03-04T06:46:47;99553.72;;;3.15;100.00
24762;BME280;12865;51.934;10.330;2023-03-04T06:49:33;99555.81;;;3.08;100.00
24762;BME280;12865;51.934;10.330;2023-03-04T06:52:19;99553.94;;;3.10;100.00
24762;BME280;12865;51.934;10.330;2023-03-04T06:55:05;99550.31;;;3.13;100.00
24762;BME280;12865;51.934;10.330;2023-03-04T06:57:51;99552.69;;;3.17;100.00
24762;BME280;12865;51.934;10.330;2023-03-04T07:00:37;99541.91;;;3.22;100.00
24762;BME280;12865;51.934;10.330;2023-03-04T07:03:22;99542.06;;;3.19;100.00
24762;BME280;12865;51.934;10.330;2023-03-04T07:06:10;99546.72;;;3.30;100.00
24762;BME280;12865;51.934;10.330;2023-03-04T07:08:57;99552.44;;;3.22;100.00
24762;BME280;12865;51.934;10.330;2023-03-04T07:11:43;99545.13;;;3.27;100.00
24762;BME280;12865;51.934;10.330;2023-03-04T07:14:29;99544.34;;;3.25;100.00
24762;BME280;12865;51.934;10.330;2023-03-04T07:17:15;99542.72;;;3.23;100.00
24762;BME280;12865;51.934;10.330;2023-03-04T07:20:00;99542.72;;;3.23;100.00
24762;BME280;12865;51.934;10.330;2023-03-04T07:22:46;99533.88;;;3.24;100.00
24762;BME280;12865;51.934;10.330;2023-03-04T07:25:32;99546.97;;;3.25;100.00
24762;BME280;12865;51.934;10.330;2023-03-04T07:28:17;99539.16;;;3.24;100.00
24762;BME280;12865;51.934;10.330;2023-03-04T07:31:29;99538.31;;;3.23;100.00
24762;BME280;12865;51.934;10.330;2023-03-04T07:34:15;99540.69;;;3.28;100.00
24762;BME280;12865;51.934;10.330;2023-03-04T07:37:01;99545.69;;;3.32;100.00
24762;BME280;12865;51.934;10.330;2023-03-04T07:39:46;99537.72;;;3.34;100.00
24762;BME280;12865;51.934;10.330;2023-03-04T07:42:32;99537.53;;;3.37;100.00
24762;BME280;12865;51.934;10.330;2023-03-04T07:45:18;99540.09;;;3.38;100.00
24762;BME280;12865;51.934;10.330;2023-03-04T07:48:04;99541.88;;;3.38;100.00
24762;BME280;12865;51.934;10.330;2023-03-04T07:51:01;99535.44;;;3.43;100.00
24762;BME280;12865;51.934;10.330;2023-03-04T07:53:50;99531.66;;;3.47;100.00
24762;BME280;12865;51.934;10.330;2023-03-04T07:56:36;99533.78;;;3.57;100.00
24762;BME280;12865;51.934;10.330;2023-03-04T07:59:22;99539.97;;;3.55;100.00
24762;BME280;12865;51.934;10.330;2023-03-04T08:02:09;99545.97;;;3.73;100.00
24762;BME280;12865;51.934;10.330;2023-03-04T08:04:55;99549.47;;;3.74;100.00
24762;BME280;12865;51.934;10.330;2023-03-04T08:07:40;99536.75;;;3.80;100.00
24762;BME280;12865;51.934;10.330;2023-03-04T08:10:26;99544.59;;;3.82;100.00
24762;BME280;12865;51.934;10.330;2023-03-04T08:13:12;99536.22;;;3.89;100.00
24762;BME280;12865;51.934;10.330;2023-03-04T08:15:58;99537.38;;;3.85;100.00
24762;BME280;12865;51.934;10.330;2023-03-04T08:18:45;99517.00;;;3.87;100.00
24762;BME280;12865;51.934;10.330;2023-03-04T08:21:33;99534.66;;;4.01;100.00
24762;BME280;12865;51.934;10.330;2023-03-04T08:24:19;99541.25;;;4.08;100.00
24762;BME280;12865;51.934;10.330;2023-03-04T08:27:04;99536.19;;;4.05;100.00
24762;BME280;12865;51.934;10.330;2023-03-04T08:29:50;99540.25;;;4.11;100.00
24762;BME280;12865;51.934;10.330;2023-03-04T08:32:36;99545.13;;;4.03;100.00
24762;BME280;12865;51.934;10.330;2023-03-04T08:35:21;99550.97;;;4.08;100.00
24762;BME280;12865;51.934;10.330;2023-03-04T08:38:07;99552.19;;;4.02;100.00
24762;BME280;12865;51.934;10.330;2023-03-04T08:40:55;99542.19;;;4.07;100.00
24762;BME280;12865;51.934;10.330;2023-03-04T08:43:41;99544.66;;;4.10;100.00
24762;BME280;12865;51.934;10.330;2023-03-04T08:46:27;99542.31;;;4.06;100.00
24762;BME280;12865;51.934;10.330;2023-03-04T08:49:12;99543.06;;;4.22;100.00
24762;BME280;12865;51.934;10.330;2023-03-04T08:51:59;99545.81;;;4.20;100.00
24762;BME280;12865;51.934;10.330;2023-03-04T08:54:44;99541.75;;;4.29;100.00
24762;BME280;12865;51.934;10.330;2023-03-04T08:57:30;99543.84;;;4.24;100.00
24762;BME280;12865;51.934;10.330;2023-03-04T09:00:16;99546.47;;;4.24;100.00
24762;BME280;12865;51.934;10.330;2023-03-04T09:03:02;99541.38;;;4.21;100.00
24762;BME280;12865;51.934;10.330;2023-03-04T09:05:48;99538.16;;;4.16;100.00
24762;BME280;12865;51.934;10.330;2023-03-04T09:08:34;99534.22;;;4.23;100.00
24762;BME280;12865;51.934;10.330;2023-03-04T09:11:20;99528.47;;;4.30;100.00
24762;BME280;12865;51.934;10.330;2023-03-04T09:14:05;99527.16;;;4.38;100.00
24762;BME280;12865;51.934;10.330;2023-03-04T09:16:51;99527.94;;;4.54;100.00
24762;BME280;12865;51.934;10.330;2023-03-04T09:19:37;99520.50;;;4.60;100.00
24762;BME280;12865;51.934;10.330;2023-03-04T09:22:22;99528.59;;;4.57;100.00
24762;BME280;12865;51.934;10.330;2023-03-04T09:25:10;99526.63;;;4.61;100.00
24762;BME280;12865;51.934;10.330;2023-03-04T09:27:58;99512.81;;;4.70;100.00
24762;BME280;12865;51.934;10.330;2023-03-04T09:30:44;99516.31;;;4.56;100.00
24762;BME280;12865;51.934;10.330;2023-03-04T09:33:30;99521.72;;;4.55;100.00
24762;BME280;12865;51.934;10.330;2023-03-04T09:36:15;99526.72;;;4.59;100.00
24762;BME280;12865;51.934;10.330;2023-03-04T09:39:02;99526.72;;;4.59;100.00
24762;BME280;12865;51.934;10.330;2023-03-04T09:41:51;99521.59;;;4.56;100.00
24762;BME280;12865;51.934;10.330;2023-03-04T09:44:42;99512.34;;;4.63;100.00
24762;BME280;12865;51.934;10.330;2023-03-04T09:47:32;99511.41;;;4.64;100.00
24762;BME280;12865;51.934;10.330;2023-03-04T09:50:20;99515.75;;;4.65;100.00
24762;BME280;12865;51.934;10.330;2023-03-04T09:53:22;99517.16;;;4.71;100.00
24762;BME280;12865;51.934;10.330;2023-03-04T09:56:10;99521.34;;;4.75;100.00
24762;BME280;12865;51.934;10.330;2023-03-04T09:59:04;99509.69;;;4.78;100.00
24762;BME280;12865;51.934;10.330;2023-03-04T10:01:57;99515.28;;;4.73;100.00
24762;BME280;12865;51.934;10.330;2023-03-04T10:04:47;99518.47;;;4.78;100.00
24762;BME280;12865;51.934;10.330;2023-03-04T10:07:37;99509.22;;;4.85;100.00
24762;BME280;12865;51.934;10.330;2023-03-04T10:10:32;99515.34;;;4.86;100.00
24762;BME280;12865;51.934;10.330;2023-03-04T10:13:28;99509.06;;;4.74;100.00
24762;BME280;12865;51.934;10.330;2023-03-04T10:16:20;99508.13;;;4.61;100.00
24762;BME280;12865;51.934;10.330;2023-03-04T10:19:23;99510.28;;;4.83;100.00
24762;BME280;12865;51.934;10.330;2023-03-04T10:22:30;99508.13;;;4.75;100.00
24762;BME280;12865;51.934;10.330;2023-03-04T10:25:25;99506.97;;;4.79;100.00
24762;BME280;12865;51.934;10.330;2023-03-04T10:28:15;99509.91;;;4.74;100.00
24762;BME280;12865;51.934;10.330;2023-03-04T10:31:08;99507.44;;;4.86;100.00
24762;BME280;12865;51.934;10.330;2023-03-04T10:33:56;99509.59;;;4.93;100.00
24762;BME280;12865;51.934;10.330;2023-03-04T10:39:45;99499.91;;;4.80;100.00
24762;BME280;12865;51.934;10.330;2023-03-04T10:42:33;99504.03;;;4.84;100.00
24762;BME280;12865;51.934;10.330;2023-03-04T10:45:24;99500.75;;;4.80;100.00
24762;BME280;12865;51.934;10.330;2023-03-04T10:48:19;99515.34;;;4.86;100.00
24762;BME280;12865;51.934;10.330;2023-03-04T10:51:24;99512.31;;;4.92;100.00
24762;BME280;12865;51.934;10.330;2023-03-04T10:57:13;99517.06;;;4.87;100.00
24762;BME280;12865;51.934;10.330;2023-03-04T11:00:07;99513.50;;;4.73;100.00
24762;BME280;12865;51.934;10.330;2023-03-04T11:06:18;99514.81;;;4.81;100.00
24762;BME280;12865;51.934;10.330;2023-03-04T11:09:04;99522.72;;;4.81;100.00
24762;BME280;12865;51.934;10.330;2023-03-04T11:11:52;99523.47;;;4.97;100.00
24762;BME280;12865;51.934;10.330;2023-03-04T11:14:44;99516.00;;;5.03;100.00
24762;BME280;12865;51.934;10.330;2023-03-04T11:17:44;99522.31;;;5.01;100.00
24762;BME280;12865;51.934;10.330;2023-03-04T11:20:40;99510.78;;;5.16;100.00
24762;BME280;12865;51.934;10.330;2023-03-04T11:23:46;99520.22;;;5.06;100.00
24762;BME280;12865;51.934;10.330;2023-03-04T11:26:39;99524.78;;;5.04;100.00
24762;BME280;12865;51.934;10.330;2023-03-04T11:29:34;99527.03;;;5.10;100.00
24762;BME280;12865;51.934;10.330;2023-03-04T11:32:25;99515.59;;;5.09;100.00
24762;BME280;12865;51.934;10.330;2023-03-04T11:35:31;99511.41;;;5.20;100.00
24762;BME280;12865;51.934;10.330;2023-03-04T11:38:26;99512.25;;;5.20;100.00
24762;BME280;12865;51.934;10.330;2023-03-04T11:41:18;99503.34;;;5.35;100.00
24762;BME280;12865;51.934;10.330;2023-03-04T11:44:05;99500.69;;;5.35;100.00
24762;BME280;12865;51.934;10.330;2023-03-04T11:50:16;99497.06;;;5.50;100.00
24762;BME280;12865;51.934;10.330;2023-03-04T12:02:16;99490.34;;;5.72;100.00
24762;BME280;12865;51.934;10.330;2023-03-04T12:05:13;99490.34;;;5.72;100.00
24762;BME280;12865;51.934;10.330;2023-03-04T12:08:19;99484.28;;;5.70;100.00
24762;BME280;12865;51.934;10.330;2023-03-04T12:11:27;99495.44;;;5.48;100.00
24762;BME280;12865;51.934;10.330;2023-03-04T12:14:31;99474.50;;;5.45;100.00
24762;BME280;12865;51.934;10.330;2023-03-04T12:17:33;99484.66;;;5.38;100.00
24762;BME280;12865;51.934;10.330;2023-03-04T12:26:42;99451.59;;;5.71;100.00
24762;BME280;12865;51.934;10.330;2023-03-04T12:29:40;99450.13;;;5.67;100.00
24762;BME280;12865;51.934;10.330;2023-03-04T12:35:32;99432.06;;;5.86;100.00
24762;BME280;12865;51.934;10.330;2023-03-04T12:38:30;99428.47;;;6.12;100.00
24762;BME280;12865;51.934;10.330;2023-03-04T12:41:48;99418.22;;;6.08;99.10
24762;BME280;12865;51.934;10.330;2023-03-04T12:44:42;99416.44;;;6.08;100.00
24762;BME280;12865;51.934;10.330;2023-03-04T12:47:46;99424.84;;;6.39;99.15
24762;BME280;12865;51.934;10.330;2023-03-04T12:50:57;99420.09;;;6.31;97.12
24762;BME280;12865;51.934;10.330;2023-03-04T12:53:57;99407.63;;;6.20;99.55
24762;BME280;12865;51.934;10.330;2023-03-04T12:59:20;99426.78;;;5.99;100.00
24762;BME280;12865;51.934;10.330;2023-03-04T13:11:41;99430.34;;;5.60;100.00
24762;BME280;12865;51.934;10.330;2023-03-04T13:14:28;99429.16;;;5.64;100.00
24762;BME280;12865;51.934;10.330;2023-03-04T13:18:41;99437.53;;;5.70;100.00
24762;BME280;12865;51.934;10.330;2023-03-04T13:24:11;99420.28;;;5.77;100.00
24762;BME280;12865;51.934;10.330;2023-03-04T13:27:45;99421.41;;;5.87;100.00
24762;BME280;12865;51.934;10.330;2023-03-04T13:36:28;99412.69;;;5.85;100.00
24762;BME280;12865;51.934;10.330;2023-03-04T13:42:01;99437.63;;;5.69;100.00
24762;BME280;12865;51.934;10.330;2023-03-04T13:47:42;99443.81;;;5.30;100.00
24762;BME280;12865;51.934;10.330;2023-03-04T13:50:32;99435.88;;;5.03;100.00
24762;BME280;12865;51.934;10.330;2023-03-04T13:53:38;99445.16;;;4.96;100.00
24762;BME280;12865;51.934;10.330;2023-03-04T13:56:29;99428.84;;;4.89;100.00
24762;BME280;12865;51.934;10.330;2023-03-04T13:59:31;99419.72;;;4.81;100.00
24762;BME280;12865;51.934;10.330;2023-03-04T14:02:24;99427.34;;;4.85;100.00
24762;BME280;12865;51.934;10.330;2023-03-04T14:05:10;99412.84;;;4.78;100.00
24762;BME280;12865;51.934;10.330;2023-03-04T14:08:16;99411.66;;;4.96;100.00
24762;BME280;12865;51.934;10.330;2023-03-04T14:11:03;99410.84;;;5.08;100.00
24762;BME280;12865;51.934;10.330;2023-03-04T14:13:48;99407.41;;;5.33;100.00
24762;BME280;12865;51.934;10.330;2023-03-04T14:16:38;99413.91;;;5.54;100.00
24762;BME280;12865;51.934;10.330;2023-03-04T14:22:26;99400.06;;;5.64;100.00
24762;BME280;12865;51.934;10.330;2023-03-04T14:30:56;99397.75;;;5.72;100.00
24762;BME280;12865;51.934;10.330;2023-03-04T14:33:48;99406.84;;;5.68;99.47
24762;BME280;12865;51.934;10.330;2023-03-04T14:36:35;99419.63;;;5.48;100.00
24762;BME280;12865;51.934;10.330;2023-03-04T14:39:23;99421.19;;;5.38;94.97
24762;BME280;12865;51.934;10.330;2023-03-04T14:42:12;99413.94;;;5.15;97.24
24762;BME280;12865;51.934;10.330;2023-03-04T14:44:59;99412.06;;;5.17;99.25
24762;BME280;12865;51.934;10.330;2023-03-04T14:47:46;99409.06;;;5.09;98.77
24762;BME280;12865;51.934;10.330;2023-03-04T14:50:33;99413.63;;;4.93;99.38
24762;BME280;12865;51.934;10.330;2023-03-04T14:53:22;99406.91;;;5.01;97.54
24762;BME280;12865;51.934;10.330;2023-03-04T14:56:08;99407.69;;;5.03;96.01
24762;BME280;12865;51.934;10.330;2023-03-04T14:58:56;99403.72;;;4.96;95.87
24762;BME280;12865;51.934;10.330;2023-03-04T15:01:42;99400.47;;;5.05;95.51
24762;BME280;12865;51.934;10.330;2023-03-04T15:04:30;99395.19;;;5.05;95.28
24762;BME280;12865;51.934;10.330;2023-03-04T15:07:22;99395.84;;;5.09;95.30
24762;BME280;12865;51.934;10.330;2023-03-04T15:10:11;99396.91;;;5.19;94.98
24762;BME280;12865;51.934;10.330;2023-03-04T15:13:01;99385.47;;;5.06;93.63
24762;BME280;12865;51.934;10.330;2023-03-04T15:15:48;99381.97;;;5.05;95.35
24762;BME280;12865;51.934;10.330;2023-03-04T15:21:39;99382.09;;;5.04;92.35
24762;BME280;12865;51.934;10.330;2023-03-04T15:24:25;99375.66;;;5.08;91.12
24762;BME280;12865;51.934;10.330;2023-03-04T15:27:11;99383.16;;;5.14;91.37
24762;BME280;12865;51.934;10.330;2023-03-04T15:29:58;99381.28;;;5.16;91.63
24762;BME280;12865;51.934;10.330;2023-03-04T15:32:45;99383.31;;;4.98;92.34
24762;BME280;12865;51.934;10.330;2023-03-04T15:35:31;99375.78;;;5.19;92.89
24762;BME280;12865;51.934;10.330;2023-03-04T15:38:17;99377.09;;;4.99;92.88
24762;BME280;12865;51.934;10.330;2023-03-04T15:41:03;99377.84;;;5.01;92.35
24762;BME280;12865;51.934;10.330;2023-03-04T15:43:50;99381.94;;;4.93;93.81
24762;BME280;12865;51.934;10.330;2023-03-04T15:46:36;99380.50;;;5.01;93.41
24762;BME280;12865;51.934;10.330;2023-03-04T15:49:22;99385.13;;;4.98;93.91
24762;BME280;12865;51.934;10.330;2023-03-04T15:52:19;99383.19;;;4.87;95.09
24762;BME280;12865;51.934;10.330;2023-03-04T15:55:06;99378.69;;;5.02;94.55
24762;BME280;12865;51.934;10.330;2023-03-04T15:57:54;99388.94;;;4.94;96.10
24762;BME280;12865;51.934;10.330;2023-03-04T16:00:40;99382.53;;;4.84;96.98